sensor_id;sensor_type;location;lat;lon;timestamp;temperature;humidity
64817;DHT22;69411;45.656;11.740;2023-06-22T00:01:46;24.70;68.90
64817;DHT22;69411;45.656;11.740;2023-06-22T00:04:12;24.70;68.90
64817;DHT22;69411;45.656;11.740;2023-06-22T00:09:04;24.70;68.70
64817;DHT22;69411;45.656;11.740;2023-06-22T00:11:33;24.60;68.70
64817;DHT22;69411;45.656;11.740;2023-06-22T00:13:59;24.60;68.70
64817;DHT22;69411;45.656;11.740;2023-06-22T00:16:25;24.60;68.70
64817;DHT22;69411;45.656;11.740;2023-06-22T00:18:52;24.70;68.80
64817;DHT22;69411;45.656;11.740;2023-06-22T00:21:18;24.60;68.80
64817;DHT22;69411;45.656;11.740;2023-06-22T00:23:46;24.70;68.90
64817;DHT22;69411;45.656;11.740;2023-06-22T00:26:13;24.60;69.00
64817;DHT22;69411;45.656;11.740;2023-06-22T00:28:39;24.60;69.10
64817;DHT22;69411;45.656;11.740;2023-06-22T00:31:05;24.60;69.20
64817;DHT22;69411;45.656;11.740;2023-06-22T00:33:31;24.60;69.20
64817;DHT22;69411;45.656;11.740;2023-06-22T00:35:57;24.50;69.30
64817;DHT22;69411;45.656;11.740;2023-06-22T00:38:23;24.50;69.50
64817;DHT22;69411;45.656;11.740;2023-06-22T00:40:49;24.50;69.60
64817;DHT22;69411;45.656;11.740;2023-06-22T00:43:15;24.50;69.70
64817;DHT22;69411;45.656;11.740;2023-06-22T00:45:41;24.40;69.80
64817;DHT22;69411;45.656;11.740;2023-06-22T00:48:08;24.40;69.90
64817;DHT22;69411;45.656;11.740;2023-06-22T00:50:34;24.40;70.00
64817;DHT22;69411;45.656;11.740;2023-06-22T00:53:06;24.40;70.00
64817;DHT22;69411;45.656;11.740;2023-06-22T00:55:35;24.40;70.10
64817;DHT22;69411;45.656;11.740;2023-06-22T00:58:04;24.40;70.30
64817;DHT22;69411;45.656;11.740;2023-06-22T01:00:33;24.30;70.80
64817;DHT22;69411;45.656;11.740;2023-06-22T01:03:01;24.30;70.70
64817;DHT22;69411;45.656;11.740;2023-06-22T01:05:28;24.20;71.00
64817;DHT22;69411;45.656;11.740;2023-06-22T01:13:57;24.10;70.80
64817;DHT22;69411;45.656;11.740;2023-06-22T01:16:28;24.00;70.90
64817;DHT22;69411;45.656;11.740;2023-06-22T01:18:57;24.00;70.90
64817;DHT22;69411;45.656;11.740;2023-06-22T01:21:25;24.00;71.00
64817;DHT22;69411;45.656;11.740;2023-06-22T01:26:43;23.90;71.30
64817;DHT22;69411;45.656;11.740;2023-06-22T01:29:15;23.90;71.40
64817;DHT22;69411;45.656;11.740;2023-06-22T01:31:43;23.90;71.50
64817;DHT22;69411;45.656;11.740;2023-06-22T01:34:11;23.80;71.60
64817;DHT22;69411;45.656;11.740;2023-06-22T01:36:38;23.90;72.00
64817;DHT22;69411;45.656;11.740;2023-06-22T01:39:05;23.80;72.10
64817;DHT22;69411;45.656;11.740;2023-06-22T01:41:36;23.70;71.90
64817;DHT22;69411;45.656;11.740;2023-06-22T01:44:05;23.70;71.80
64817;DHT22;69411;45.656;11.740;2023-06-22T01:46:34;23.70;71.80
64817;DHT22;69411;45.656;11.740;2023-06-22T01:49:05;23.70;72.00
64817;DHT22;69411;45.656;11.740;2023-06-22T01:51:31;23.60;72.00
64817;DHT22;69411;45.656;11.740;2023-06-22T01:53:57;23.60;72.10
64817;DHT22;69411;45.656;11.740;2023-06-22T02:01:54;23.60;72.30
64817;DHT22;69411;45.656;11.740;2023-06-22T02:04:28;23.60;72.50
64817;DHT22;69411;45.656;11.740;2023-06-22T02:06:58;23.50;72.50
64817;DHT22;69411;45.656;11.740;2023-06-22T02:09:29;23.50;72.60
64817;DHT22;69411;45.656;11.740;2023-06-22T02:11:56;23.50;72.60
64817;DHT22;69411;45.656;11.740;2023-06-22T02:14:25;23.50;72.70
64817;DHT22;69411;45.656;11.740;2023-06-22T02:16:53;23.50;72.80
64817;DHT22;69411;45.656;11.740;2023-06-22T02:19:23;23.50;72.90
64817;DHT22;69411;45.656;11.740;2023-06-22T02:21:52;23.50;72.80
64817;DHT22;69411;45.656;11.740;2023-06-22T02:24:22;23.40;72.90
64817;DHT22;69411;45.656;11.740;2023-06-22T02:27:09;23.40;73.00
64817;DHT22;69411;45.656;11.740;2023-06-22T02:29:37;23.40;73.00
64817;DHT22;69411;45.656;11.740;2023-06-22T02:32:05;23.40;73.00
64817;DHT22;69411;45.656;11.740;2023-06-22T02:34:31;23.40;73.00
64817;DHT22;69411;45.656;11.740;2023-06-22T02:37:00;23.40;73.10
64817;DHT22;69411;45.656;11.740;2023-06-22T02:39:28;23.40;73.10
64817;DHT22;69411;45.656;11.740;2023-06-22T02:41:54;23.40;73.10
64817;DHT22;69411;45.656;11.740;2023-06-22T02:44:21;23.40;73.10
64817;DHT22;69411;45.656;11.740;2023-06-22T02:46:47;23.40;73.10
64817;DHT22;69411;45.656;11.740;2023-06-22T02:49:13;23.40;73.10
64817;DHT22;69411;45.656;11.740;2023-06-22T02:51:44;23.40;73.20
64817;DHT22;69411;45.656;11.740;2023-06-22T02:54:10;23.40;73.20
64817;DHT22;69411;45.656;11.740;2023-06-22T02:56:36;23.40;73.60
64817;DHT22;69411;45.656;11.740;2023-06-22T02:59:03;23.40;73.40
64817;DHT22;69411;45.656;11.740;2023-06-22T03:01:29;23.40;73.40
64817;DHT22;69411;45.656;11.740;2023-06-22T03:04:04;23.40;73.30
64817;DHT22;69411;45.656;11.740;2023-06-22T03:06:30;23.40;73.70
64817;DHT22;69411;45.656;11.740;2023-06-22T03:09:00;23.30;73.40
64817;DHT22;69411;45.656;11.740;2023-06-22T03:11:27;23.40;73.40
64817;DHT22;69411;45.656;11.740;2023-06-22T03:13:53;23.40;73.40
64817;DHT22;69411;45.656;11.740;2023-06-22T03:16:19;23.30;73.70
64817;DHT22;69411;45.656;11.740;2023-06-22T03:18:45;23.30;73.50
64817;DHT22;69411;45.656;11.740;2023-06-22T03:21:11;23.30;73.60
64817;DHT22;69411;45.656;11.740;2023-06-22T03:23:37;23.20;73.60
64817;DHT22;69411;45.656;11.740;2023-06-22T03:26:03;23.30;73.90
64817;DHT22;69411;45.656;11.740;2023-06-22T03:28:30;23.30;73.70
64817;DHT22;69411;45.656;11.740;2023-06-22T03:30:57;23.20;73.60
64817;DHT22;69411;45.656;11.740;2023-06-22T03:33:24;23.30;73.60
64817;DHT22;69411;45.656;11.740;2023-06-22T03:35:50;23.30;73.70
64817;DHT22;69411;45.656;11.740;2023-06-22T03:38:17;23.40;73.70
64817;DHT22;69411;45.656;11.740;2023-06-22T03:40:43;23.50;73.50
64817;DHT22;69411;45.656;11.740;2023-06-22T03:43:09;23.60;73.40
64817;DHT22;69411;45.656;11.740;2023-06-22T03:45:35;23.70;73.20
64817;DHT22;69411;45.656;11.740;2023-06-22T03:48:01;23.80;73.20
64817;DHT22;69411;45.656;11.740;2023-06-22T03:50:27;23.90;73.00
64817;DHT22;69411;45.656;11.740;2023-06-22T03:52:53;23.90;72.80
64817;DHT22;69411;45.656;11.740;2023-06-22T03:55:20;23.90;72.80
64817;DHT22;69411;45.656;11.740;2023-06-22T03:57:46;23.90;72.80
64817;DHT22;69411;45.656;11.740;2023-06-22T04:00:12;23.80;72.70
64817;DHT22;69411;45.656;11.740;2023-06-22T04:02:38;23.90;72.70
64817;DHT22;69411;45.656;11.740;2023-06-22T04:05:05;23.90;73.00
64817;DHT22;69411;45.656;11.740;2023-06-22T04:07:31;23.80;73.00
64817;DHT22;69411;45.656;11.740;2023-06-22T04:09:57;23.80;72.90
64817;DHT22;69411;45.656;11.740;2023-06-22T04:12:23;23.80;73.20
64817;DHT22;69411;45.656;11.740;2023-06-22T04:14:49;23.80;73.30
64817;DHT22;69411;45.656;11.740;2023-06-22T04:17:15;23.80;73.20
64817;DHT22;69411;45.656;11.740;2023-06-22T04:19:41;23.80;73.10
64817;DHT22;69411;45.656;11.740;2023-06-22T04:22:07;23.90;73.40
64817;DHT22;69411;45.656;11.740;2023-06-22T04:24:33;23.90;73.30
64817;DHT22;69411;45.656;11.740;2023-06-22T04:26:59;23.90;73.10
64817;DHT22;69411;45.656;11.740;2023-06-22T04:29:29;23.90;73.10
64817;DHT22;69411;45.656;11.740;2023-06-22T04:31:59;24.00;73.00
64817;DHT22;69411;45.656;11.740;2023-06-22T04:34:29;24.10;72.80
64817;DHT22;69411;45.656;11.740;2023-06-22T04:36:55;24.30;72.90
64817;DHT22;69411;45.656;11.740;2023-06-22T04:39:23;24.40;72.60
64817;DHT22;69411;45.656;11.740;2023-06-22T04:41:51;24.50;72.30
64817;DHT22;69411;45.656;11.740;2023-06-22T04:44:18;24.70;71.90
64817;DHT22;69411;45.656;11.740;2023-06-22T04:49:18;25.20;71.30
64817;DHT22;69411;45.656;11.740;2023-06-22T04:51:51;25.40;71.00
64817;DHT22;69411;45.656;11.740;2023-06-22T04:54:20;25.70;70.60
64817;DHT22;69411;45.656;11.740;2023-06-22T04:56:46;26.10;70.10
64817;DHT22;69411;45.656;11.740;2023-06-22T04:59:14;26.50;69.40
64817;DHT22;69411;45.656;11.740;2023-06-22T05:01:40;26.90;68.60
64817;DHT22;69411;45.656;11.740;2023-06-22T05:04:07;27.40;67.80
64817;DHT22;69411;45.656;11.740;2023-06-22T05:06:40;27.80;66.70
64817;DHT22;69411;45.656;11.740;2023-06-22T05:09:06;28.30;65.80
64817;DHT22;69411;45.656;11.740;2023-06-22T05:11:32;28.70;64.90
64817;DHT22;69411;45.656;11.740;2023-06-22T05:13:59;29.20;64.10
64817;DHT22;69411;45.656;11.740;2023-06-22T05:16:25;29.60;63.00
64817;DHT22;69411;45.656;11.740;2023-06-22T05:18:55;30.00;62.10
64817;DHT22;69411;45.656;11.740;2023-06-22T05:26:20;31.40;59.40
64817;DHT22;69411;45.656;11.740;2023-06-22T05:28:47;31.70;58.50
64817;DHT22;69411;45.656;11.740;2023-06-22T05:33:38;32.40;57.10
64817;DHT22;69411;45.656;11.740;2023-06-22T05:36:05;32.80;56.00
64817;DHT22;69411;45.656;11.740;2023-06-22T05:38:31;33.20;55.30
64817;DHT22;69411;45.656;11.740;2023-06-22T05:40:57;33.50;54.80
64817;DHT22;69411;45.656;11.740;2023-06-22T05:43:23;33.70;54.10
64817;DHT22;69411;45.656;11.740;2023-06-22T05:45:49;33.90;53.00
64817;DHT22;69411;45.656;11.740;2023-06-22T05:48:16;34.10;52.60
64817;DHT22;69411;45.656;11.740;2023-06-22T05:50:42;34.40;52.30
64817;DHT22;69411;45.656;11.740;2023-06-22T05:53:09;34.60;51.80
64817;DHT22;69411;45.656;11.740;2023-06-22T05:55:35;34.90;51.30
64817;DHT22;69411;45.656;11.740;2023-06-22T05:58:01;35.20;50.70
64817;DHT22;69411;45.656;11.740;2023-06-22T06:00:27;35.60;50.10
64817;DHT22;69411;45.656;11.740;2023-06-22T06:02:53;35.90;49.50
64817;DHT22;69411;45.656;11.740;2023-06-22T06:05:19;36.20;48.80
64817;DHT22;69411;45.656;11.740;2023-06-22T06:07:45;36.40;48.10
64817;DHT22;69411;45.656;11.740;2023-06-22T06:10:12;36.60;47.60
64817;DHT22;69411;45.656;11.740;2023-06-22T06:12:38;36.80;47.20
64817;DHT22;69411;45.656;11.740;2023-06-22T06:15:04;36.90;46.80
64817;DHT22;69411;45.656;11.740;2023-06-22T06:17:31;36.60;46.70
64817;DHT22;69411;45.656;11.740;2023-06-22T06:19:59;36.40;46.90
64817;DHT22;69411;45.656;11.740;2023-06-22T06:22:25;36.30;46.90
64817;DHT22;69411;45.656;11.740;2023-06-22T06:24:51;36.30;46.80
64817;DHT22;69411;45.656;11.740;2023-06-22T06:27:17;36.40;46.70
64817;DHT22;69411;45.656;11.740;2023-06-22T06:29:46;36.40;46.40
64817;DHT22;69411;45.656;11.740;2023-06-22T06:32:14;36.50;46.10
64817;DHT22;69411;45.656;11.740;2023-06-22T06:34:40;36.50;45.80
64817;DHT22;69411;45.656;11.740;2023-06-22T06:37:06;36.60;45.40
64817;DHT22;69411;45.656;11.740;2023-06-22T06:39:32;36.50;45.50
64817;DHT22;69411;45.656;11.740;2023-06-22T06:41:58;36.30;45.30
64817;DHT22;69411;45.656;11.740;2023-06-22T06:44:24;36.00;45.60
64817;DHT22;69411;45.656;11.740;2023-06-22T06:46:50;35.80;46.10
64817;DHT22;69411;45.656;11.740;2023-06-22T06:49:16;35.40;46.60
64817;DHT22;69411;45.656;11.740;2023-06-22T06:51:42;35.00;47.30
64817;DHT22;69411;45.656;11.740;2023-06-22T06:54:07;34.60;48.00
64817;DHT22;69411;45.656;11.740;2023-06-22T06:56:33;34.30;48.60
64817;DHT22;69411;45.656;11.740;2023-06-22T06:58:59;34.20;49.10
64817;DHT22;69411;45.656;11.740;2023-06-22T07:01:25;34.10;49.40
64817;DHT22;69411;45.656;11.740;2023-06-22T07:03:51;34.00;49.60
64817;DHT22;69411;45.656;11.740;2023-06-22T07:06:17;34.00;49.90
64817;DHT22;69411;45.656;11.740;2023-06-22T07:08:43;33.90;50.10
64817;DHT22;69411;45.656;11.740;2023-06-22T07:11:09;33.90;50.10
64817;DHT22;69411;45.656;11.740;2023-06-22T07:13:34;33.90;50.20
64817;DHT22;69411;45.656;11.740;2023-06-22T07:16:00;34.00;50.20
64817;DHT22;69411;45.656;11.740;2023-06-22T07:18:26;34.00;50.10
64817;DHT22;69411;45.656;11.740;2023-06-22T07:20:53;33.90;50.20
64817;DHT22;69411;45.656;11.740;2023-06-22T07:23:19;33.90;50.30
64817;DHT22;69411;45.656;11.740;2023-06-22T07:25:45;33.80;50.50
64817;DHT22;69411;45.656;11.740;2023-06-22T07:28:11;33.70;50.50
64817;DHT22;69411;45.656;11.740;2023-06-22T07:30:37;33.50;50.70
64817;DHT22;69411;45.656;11.740;2023-06-22T07:33:03;33.40;50.90
64817;DHT22;69411;45.656;11.740;2023-06-22T07:35:32;33.30;51.20
64817;DHT22;69411;45.656;11.740;2023-06-22T07:37:59;33.30;51.40
64817;DHT22;69411;45.656;11.740;2023-06-22T07:40:25;33.30;51.40
64817;DHT22;69411;45.656;11.740;2023-06-22T07:42:52;33.40;51.50
64817;DHT22;69411;45.656;11.740;2023-06-22T07:45:18;33.40;51.30
64817;DHT22;69411;45.656;11.740;2023-06-22T07:47:44;33.50;51.20
64817;DHT22;69411;45.656;11.740;2023-06-22T07:50:11;33.60;51.10
64817;DHT22;69411;45.656;11.740;2023-06-22T07:52:37;33.70;50.80
64817;DHT22;69411;45.656;11.740;2023-06-22T07:55:03;33.70;50.70
64817;DHT22;69411;45.656;11.740;2023-06-22T07:57:30;33.80;50.80
64817;DHT22;69411;45.656;11.740;2023-06-22T08:00:03;33.80;50.70
64817;DHT22;69411;45.656;11.740;2023-06-22T08:02:36;33.80;50.70
64817;DHT22;69411;45.656;11.740;2023-06-22T08:05:03;33.80;50.80
64817;DHT22;69411;45.656;11.740;2023-06-22T08:07:29;33.70;51.00
64817;DHT22;69411;45.656;11.740;2023-06-22T08:09:59;33.80;51.10
64817;DHT22;69411;45.656;11.740;2023-06-22T08:12:25;33.80;51.10
64817;DHT22;69411;45.656;11.740;2023-06-22T08:14:50;33.80;50.90
64817;DHT22;69411;45.656;11.740;2023-06-22T08:17:17;33.90;50.90
64817;DHT22;69411;45.656;11.740;2023-06-22T08:19:43;33.90;50.60
64817;DHT22;69411;45.656;11.740;2023-06-22T08:22:09;33.70;50.70
64817;DHT22;69411;45.656;11.740;2023-06-22T08:24:34;33.70;50.90
64817;DHT22;69411;45.656;11.740;2023-06-22T08:27:00;33.70;50.70
64817;DHT22;69411;45.656;11.740;2023-06-22T08:29:26;33.50;50.70
64817;DHT22;69411;45.656;11.740;2023-06-22T08:31:52;33.50;50.80
64817;DHT22;69411;45.656;11.740;2023-06-22T08:34:18;33.40;51.10
64817;DHT22;69411;45.656;11.740;2023-06-22T08:36:47;33.40;51.20
64817;DHT22;69411;45.656;11.740;2023-06-22T08:39:18;33.40;51.40
64817;DHT22;69411;45.656;11.740;2023-06-22T08:41:44;33.50;51.40
64817;DHT22;69411;45.656;11.740;2023-06-22T08:44:11;33.50;51.50
64817;DHT22;69411;45.656;11.740;2023-06-22T08:46:36;33.50;51.50
64817;DHT22;69411;45.656;11.740;2023-06-22T08:49:04;33.40;51.70
64817;DHT22;69411;45.656;11.740;2023-06-22T08:51:30;33.50;51.80
64817;DHT22;69411;45.656;11.740;2023-06-22T08:53:56;33.50;51.90
64817;DHT22;69411;45.656;11.740;2023-06-22T08:56:22;33.50;51.70
64817;DHT22;69411;45.656;11.740;2023-06-22T08:58:48;33.50;51.50
64817;DHT22;69411;45.656;11.740;2023-06-22T09:01:14;33.30;51.70
64817;DHT22;69411;45.656;11.740;2023-06-22T09:03:42;33.30;51.90
64817;DHT22;69411;45.656;11.740;2023-06-22T09:06:08;33.20;51.90
64817;DHT22;69411;45.656;11.740;2023-06-22T09:08:38;33.10;52.10
64817;DHT22;69411;45.656;11.740;2023-06-22T09:11:04;33.10;52.20
64817;DHT22;69411;45.656;11.740;2023-06-22T09:13:31;33.20;52.20
64817;DHT22;69411;45.656;11.740;2023-06-22T09:15:57;33.30;52.10
64817;DHT22;69411;45.656;11.740;2023-06-22T09:18:23;33.40;51.80
64817;DHT22;69411;45.656;11.740;2023-06-22T09:20:49;33.40;52.00
64817;DHT22;69411;45.656;11.740;2023-06-22T09:23:15;33.40;52.10
64817;DHT22;69411;45.656;11.740;2023-06-22T09:25:41;33.50;51.90
64817;DHT22;69411;45.656;11.740;2023-06-22T09:28:07;33.50;51.90
64817;DHT22;69411;45.656;11.740;2023-06-22T09:30:34;33.60;51.80
64817;DHT22;69411;45.656;11.740;2023-06-22T09:33:00;33.60;51.90
64817;DHT22;69411;45.656;11.740;2023-06-22T09:35:26;33.80;51.90
64817;DHT22;69411;45.656;11.740;2023-06-22T09:37:54;33.90;51.40
64817;DHT22;69411;45.656;11.740;2023-06-22T09:40:24;33.90;51.30
64817;DHT22;69411;45.656;11.740;2023-06-22T09:42:50;33.90;51.20
64817;DHT22;69411;45.656;11.740;2023-06-22T09:45:16;33.80;50.90
64817;DHT22;69411;45.656;11.740;2023-06-22T09:47:42;33.80;50.50
64817;DHT22;69411;45.656;11.740;2023-06-22T09:50:10;33.80;50.10
64817;DHT22;69411;45.656;11.740;2023-06-22T09:52:37;33.80;49.90
64817;DHT22;69411;45.656;11.740;2023-06-22T09:55:05;33.90;49.50
64817;DHT22;69411;45.656;11.740;2023-06-22T09:57:32;33.80;49.30
64817;DHT22;69411;45.656;11.740;2023-06-22T10:00:04;33.80;49.30
64817;DHT22;69411;45.656;11.740;2023-06-22T10:02:43;33.90;49.10
64817;DHT22;69411;45.656;11.740;2023-06-22T10:05:13;34.00;48.90
64817;DHT22;69411;45.656;11.740;2023-06-22T10:07:40;34.10;48.30
64817;DHT22;69411;45.656;11.740;2023-06-22T10:10:09;34.00;47.50
64817;DHT22;69411;45.656;11.740;2023-06-22T10:15:01;33.60;47.40
64817;DHT22;69411;45.656;11.740;2023-06-22T10:17:29;33.50;47.50
64817;DHT22;69411;45.656;11.740;2023-06-22T10:19:55;33.40;47.60
64817;DHT22;69411;45.656;11.740;2023-06-22T10:22:21;33.40;47.70
64817;DHT22;69411;45.656;11.740;2023-06-22T10:24:46;33.40;47.60
64817;DHT22;69411;45.656;11.740;2023-06-22T10:27:13;33.50;47.60
64817;DHT22;69411;45.656;11.740;2023-06-22T10:29:40;33.50;47.50
64817;DHT22;69411;45.656;11.740;2023-06-22T10:32:11;33.60;47.40
64817;DHT22;69411;45.656;11.740;2023-06-22T10:34:37;33.50;47.20
64817;DHT22;69411;45.656;11.740;2023-06-22T10:37:06;33.50;47.70
64817;DHT22;69411;45.656;11.740;2023-06-22T10:39:32;33.50;47.60
64817;DHT22;69411;45.656;11.740;2023-06-22T10:41:58;33.40;47.50
64817;DHT22;69411;45.656;11.740;2023-06-22T10:44:26;33.40;47.70
64817;DHT22;69411;45.656;11.740;2023-06-22T10:46:52;33.40;47.90
64817;DHT22;69411;45.656;11.740;2023-06-22T10:51:45;33.50;47.30
64817;DHT22;69411;45.656;11.740;2023-06-22T10:54:18;33.40;47.50
64817;DHT22;69411;45.656;11.740;2023-06-22T10:56:45;33.50;47.60
64817;DHT22;69411;45.656;11.740;2023-06-22T10:59:13;33.50;47.50
64817;DHT22;69411;45.656;11.740;2023-06-22T11:01:45;33.60;47.60
64817;DHT22;69411;45.656;11.740;2023-06-22T11:04:12;33.70;47.10
64817;DHT22;69411;45.656;11.740;2023-06-22T11:06:38;33.80;47.20
64817;DHT22;69411;45.656;11.740;2023-06-22T11:09:05;33.80;47.10
64817;DHT22;69411;45.656;11.740;2023-06-22T11:11:32;33.90;46.90
64817;DHT22;69411;45.656;11.740;2023-06-22T11:14:07;33.90;46.80
64817;DHT22;69411;45.656;11.740;2023-06-22T11:16:33;34.00;46.30
64817;DHT22;69411;45.656;11.740;2023-06-22T11:19:00;34.00;45.80
64817;DHT22;69411;45.656;11.740;2023-06-22T11:21:26;33.90;45.80
64817;DHT22;69411;45.656;11.740;2023-06-22T11:23:52;33.80;45.90
64817;DHT22;69411;45.656;11.740;2023-06-22T11:26:18;33.70;45.90
64817;DHT22;69411;45.656;11.740;2023-06-22T11:28:44;33.70;46.10
64817;DHT22;69411;45.656;11.740;2023-06-22T11:31:10;33.60;45.80
64817;DHT22;69411;45.656;11.740;2023-06-22T11:33:36;33.60;45.50
64817;DHT22;69411;45.656;11.740;2023-06-22T11:36:02;33.70;45.80
64817;DHT22;69411;45.656;11.740;2023-06-22T11:38:28;33.70;45.50
64817;DHT22;69411;45.656;11.740;2023-06-22T11:41:03;33.70;45.40
64817;DHT22;69411;45.656;11.740;2023-06-22T11:43:29;33.80;44.30
64817;DHT22;69411;45.656;11.740;2023-06-22T11:45:55;33.90;44.50
64817;DHT22;69411;45.656;11.740;2023-06-22T11:48:25;33.80;44.10
64817;DHT22;69411;45.656;11.740;2023-06-22T11:50:52;33.70;43.70
64817;DHT22;69411;45.656;11.740;2023-06-22T11:53:18;33.70;43.80
64817;DHT22;69411;45.656;11.740;2023-06-22T11:55:44;33.70;44.00
64817;DHT22;69411;45.656;11.740;2023-06-22T11:58:10;33.80;44.00
64817;DHT22;69411;45.656;11.740;2023-06-22T12:00:39;33.80;44.10
64817;DHT22;69411;45.656;11.740;2023-06-22T12:03:06;33.90;44.20
64817;DHT22;69411;45.656;11.740;2023-06-22T12:05:32;33.90;44.10
64817;DHT22;69411;45.656;11.740;2023-06-22T12:07:57;33.90;44.30
64817;DHT22;69411;45.656;11.740;2023-06-22T12:10:27;34.00;44.30
64817;DHT22;69411;45.656;11.740;2023-06-22T12:12:54;34.10;44.20
64817;DHT22;69411;45.656;11.740;2023-06-22T12:15:20;34.20;44.50
64817;DHT22;69411;45.656;11.740;2023-06-22T12:17:46;34.30;44.60
64817;DHT22;69411;45.656;11.740;2023-06-22T12:20:13;34.40;44.60
64817;DHT22;69411;45.656;11.740;2023-06-22T12:22:50;34.50;44.20
64817;DHT22;69411;45.656;11.740;2023-06-22T12:25:17;34.40;43.10
64817;DHT22;69411;45.656;11.740;2023-06-22T12:27:47;34.40;43.70
64817;DHT22;69411;45.656;11.740;2023-06-22T12:30:18;34.40;43.40
64817;DHT22;69411;45.656;11.740;2023-06-22T12:32:46;34.30;43.40
64817;DHT22;69411;45.656;11.740;2023-06-22T12:35:16;34.30;43.40
64817;DHT22;69411;45.656;11.740;2023-06-22T12:44:59;34.00;43.20
64817;DHT22;69411;45.656;11.740;2023-06-22T12:47:25;34.00;43.20
64817;DHT22;69411;45.656;11.740;2023-06-22T12:49:51;34.00;43.60
64817;DHT22;69411;45.656;11.740;2023-06-22T12:52:16;34.10;43.70
64817;DHT22;69411;45.656;11.740;2023-06-22T12:54:42;34.10;43.70
64817;DHT22;69411;45.656;11.740;2023-06-22T12:57:09;34.10;43.90
64817;DHT22;69411;45.656;11.740;2023-06-22T12:59:35;34.20;44.10
64817;DHT22;69411;45.656;11.740;2023-06-22T13:02:00;34.30;44.00
64817;DHT22;69411;45.656;11.740;2023-06-22T13:04:27;34.40;44.20
64817;DHT22;69411;45.656;11.740;2023-06-22T13:06:52;34.60;43.90
64817;DHT22;69411;45.656;11.740;2023-06-22T13:09:19;34.70;43.60
64817;DHT22;69411;45.656;11.740;2023-06-22T13:11:45;34.90;43.50
64817;DHT22;69411;45.656;11.740;2023-06-22T13:14:11;34.90;43.30
64817;DHT22;69411;45.656;11.740;2023-06-22T13:16:37;34.90;43.20
64817;DHT22;69411;45.656;11.740;2023-06-22T13:19:03;35.00;43.20
64817;DHT22;69411;45.656;11.740;2023-06-22T13:21:30;35.10;43.30
64817;DHT22;69411;45.656;11.740;2023-06-22T13:23:56;35.20;43.20
64817;DHT22;69411;45.656;11.740;2023-06-22T13:26:24;35.20;43.20
64817;DHT22;69411;45.656;11.740;2023-06-22T13:28:52;35.10;43.40
64817;DHT22;69411;45.656;11.740;2023-06-22T13:31:18;35.00;43.70
64817;DHT22;69411;45.656;11.740;2023-06-22T13:33:44;35.00;43.80
64817;DHT22;69411;45.656;11.740;2023-06-22T13:36:13;34.90;43.70
64817;DHT22;69411;45.656;11.740;2023-06-22T13:38:39;34.90;43.80
64817;DHT22;69411;45.656;11.740;2023-06-22T13:41:05;35.00;43.90
64817;DHT22;69411;45.656;11.740;2023-06-22T13:43:32;35.00;44.10
64817;DHT22;69411;45.656;11.740;2023-06-22T13:45:58;35.10;44.10
64817;DHT22;69411;45.656;11.740;2023-06-22T13:48:24;35.10;44.10
64817;DHT22;69411;45.656;11.740;2023-06-22T13:50:52;35.00;44.10
64817;DHT22;69411;45.656;11.740;2023-06-22T13:53:19;35.00;44.00
64817;DHT22;69411;45.656;11.740;2023-06-22T13:55:45;35.00;44.00
64817;DHT22;69411;45.656;11.740;2023-06-22T13:58:13;35.00;44.10
64817;DHT22;69411;45.656;11.740;2023-06-22T14:00:39;35.00;43.90
64817;DHT22;69411;45.656;11.740;2023-06-22T14:03:05;35.00;43.70
64817;DHT22;69411;45.656;11.740;2023-06-22T14:05:33;35.00;43.60
64817;DHT22;69411;45.656;11.740;2023-06-22T14:07:59;35.00;43.20
64817;DHT22;69411;45.656;11.740;2023-06-22T14:10:25;35.00;43.30
64817;DHT22;69411;45.656;11.740;2023-06-22T14:12:51;35.00;43.30
64817;DHT22;69411;45.656;11.740;2023-06-22T14:15:19;34.90;43.30
64817;DHT22;69411;45.656;11.740;2023-06-22T14:17:45;34.80;43.40
64817;DHT22;69411;45.656;11.740;2023-06-22T14:20:11;34.70;43.70
64817;DHT22;69411;45.656;11.740;2023-06-22T14:22:37;34.70;43.90
64817;DHT22;69411;45.656;11.740;2023-06-22T14:25:04;34.70;44.10
64817;DHT22;69411;45.656;11.740;2023-06-22T14:27:30;34.80;44.00
64817;DHT22;69411;45.656;11.740;2023-06-22T14:29:56;34.70;44.10
64817;DHT22;69411;45.656;11.740;2023-06-22T14:32:22;34.50;44.50
64817;DHT22;69411;45.656;11.740;2023-06-22T14:34:48;34.50;44.60
64817;DHT22;69411;45.656;11.740;2023-06-22T14:37:15;34.50;44.60
64817;DHT22;69411;45.656;11.740;2023-06-22T14:39:42;34.50;44.80
64817;DHT22;69411;45.656;11.740;2023-06-22T14:42:08;34.40;44.80
64817;DHT22;69411;45.656;11.740;2023-06-22T14:59:31;34.20;46.40
64817;DHT22;69411;45.656;11.740;2023-06-22T15:01:57;34.20;47.40
64817;DHT22;69411;45.656;11.740;2023-06-22T15:04:23;34.10;47.30
64817;DHT22;69411;45.656;11.740;2023-06-22T15:06:48;34.10;47.30
64817;DHT22;69411;45.656;11.740;2023-06-22T15:09:14;34.00;47.30
64817;DHT22;69411;45.656;11.740;2023-06-22T15:11:40;34.00;47.30
64817;DHT22;69411;45.656;11.740;2023-06-22T15:14:07;33.90;47.40
64817;DHT22;69411;45.656;11.740;2023-06-22T15:16:33;33.80;47.40
64817;DHT22;69411;45.656;11.740;2023-06-22T15:18:59;33.70;47.50
64817;DHT22;69411;45.656;11.740;2023-06-22T15:21:25;33.60;47.70
64817;DHT22;69411;45.656;11.740;2023-06-22T15:23:51;33.50;47.70
64817;DHT22;69411;45.656;11.740;2023-06-22T15:26:17;33.40;47.80
64817;DHT22;69411;45.656;11.740;2023-06-22T15:28:43;33.40;47.80
64817;DHT22;69411;45.656;11.740;2023-06-22T15:31:09;33.30;47.80
64817;DHT22;69411;45.656;11.740;2023-06-22T15:33:35;33.20;47.80
64817;DHT22;69411;45.656;11.740;2023-06-22T15:36:03;33.10;47.80
64817;DHT22;69411;45.656;11.740;2023-06-22T15:38:30;33.00;47.80
64817;DHT22;69411;45.656;11.740;2023-06-22T15:40:57;33.00;47.80
64817;DHT22;69411;45.656;11.740;2023-06-22T15:43:23;33.00;47.80
64817;DHT22;69411;45.656;11.740;2023-06-22T15:45:49;32.90;47.90
64817;DHT22;69411;45.656;11.740;2023-06-22T15:48:15;32.90;47.90
64817;DHT22;69411;45.656;11.740;2023-06-22T15:50:41;32.80;48.00
64817;DHT22;69411;45.656;11.740;2023-06-22T15:53:08;32.70;48.10
64817;DHT22;69411;45.656;11.740;2023-06-22T15:55:34;32.70;48.00
64817;DHT22;69411;45.656;11.740;2023-06-22T15:58:01;32.60;48.20
64817;DHT22;69411;45.656;11.740;2023-06-22T16:00:27;32.50;48.40
64817;DHT22;69411;45.656;11.740;2023-06-22T16:02:53;32.40;48.60
64817;DHT22;69411;45.656;11.740;2023-06-22T16:05:19;32.40;48.70
64817;DHT22;69411;45.656;11.740;2023-06-22T16:07:45;32.30;48.80